KFSI/FSI METAR and TAF weather

Enter ICAO airport designator
Station Type Date Time Source
KFSI METAR 2020/07/08 20:56 UTC NOAA

KFSI 082056Z AUTO 15012G16KT 10SM SCT047 SCT055 33/24 A2982 RMK AO2 RAB28E31DZB31E38 SLP087 P0000 60000 T03320243 57020 $


Station Type Date Time Source
KFSI Decoded METAR 2020/07/08 20:56 UTC NOAA

Fort Sill, OK, United States (KFSI) 34-36N 098-24W 360M
Jul 08, 2020 - 04:56 PM EDT / 2020.07.08 2056 UTC
Wind: from the SSE (150 degrees) at 14 MPH (12 KT) gusting to 18 MPH (16 KT):0
Visibility: 10 mile(s):0
Sky conditions: partly cloudy
Precipitation last hour: A trace
Temperature: 91.8 F (33.2 C)
Heat index: 103.5 F (39.7 C):1
Dew Point: 75.7 F (24.3 C)
Relative Humidity: 59%
Pressure (altimeter): 29.82 in. Hg (1009 hPa)
Pressure tendency: 0.06 inches (2.0 hPa) lower than three hours ago
ob: KFSI 082056Z AUTO 15012G16KT 10SM SCT047 SCT055 33/24 A2982 RMK AO2 RAB28E31DZB31E38 SLP087 P0000 60000 T03320243 57020
cycle: 21

Station Type Date Time Source
KFSI TAF 2020/07/08 21:30 UTC NOAA

TAF COR KFSI 082100Z 0821/1003 17009KT 9999 FEW050 510052 QNH2974INS
BECMG 0914/0915 21012G18KT 9999 SCT150 510052 QNH2974INS
BECMG 0919/0920 19015G25KT 9999 FEW150 510052 QNH2971INS
BECMG 0923/0924 18009KT 9999 SKC 510052 QNH2970INS TX38/0921Z TN25/0912Z LAST NO
AMDS AFT 0903 NEXT 0913

Example: see airport list